Time;durP1;ratioP1;P1;durP2;ratioP2;P2;SDS_P1;SDS_P2;PMS_P1;PMS_P2;Temp;Humidity;BMP_temperature;BMP_pressure;BME280_temperature;BME280_humidity;BME280_pressure;Samples;Min_cycle;Max_cycle;Signal;HPM_P1;HPM_P2
2021/09/25 00:01:15;;;;;;;;;2.00;0.00;;;;;;;;2742865;52;8800;-60
2021/09/25 00:03:41;;;;;;;;;1.00;1.00;;;;;;;;2743404;52;8798;-59
2021/09/25 00:06:07;;;;;;;;;0.00;0.00;;;;;;;;2743152;52;8783;-60
2021/09/25 00:08:32;;;;;;;;;2.00;0.00;;;;;;;;2743234;52;8809;-59
2021/09/25 00:10:58;;;;;;;;;0.00;0.00;;;;;;;;2743100;52;8787;-60
2021/09/25 00:13:24;;;;;;;;;1.25;1.25;;;;;;;;2743283;52;8810;-60
2021/09/25 00:15:50;;;;;;;;;1.00;1.00;;;;;;;;2743435;52;8896;-60
2021/09/25 00:18:15;;;;;;;;;1.00;1.00;;;;;;;;2743222;52;9441;-59
2021/09/25 00:20:41;;;;;;;;;1.50;1.25;;;;;;;;2742495;52;8801;-60
2021/09/25 00:23:07;;;;;;;;;0.25;0.00;;;;;;;;2743284;52;8782;-58
2021/09/25 00:25:32;;;;;;;;;1.25;1.00;;;;;;;;2743243;52;8915;-59
2021/09/25 00:27:58;;;;;;;;;0.75;0.75;;;;;;;;2742995;52;11529;-58
2021/09/25 00:30:24;;;;;;;;;2.00;1.00;;;;;;;;2743572;52;8802;-59
2021/09/25 00:32:51;;;;;;;;;0.00;0.00;;;;;;;;2744083;52;8793;-58
2021/09/25 00:35:17;;;;;;;;;0.60;0.60;;;;;;;;2743922;52;8793;-59
2021/09/25 00:37:43;;;;;;;;;0.00;0.00;;;;;;;;2743853;52;8794;-60
2021/09/25 00:40:10;;;;;;;;;0.40;0.40;;;;;;;;2743515;52;8798;-59
2021/09/25 00:42:35;;;;;;;;;0.00;0.00;;;;;;;;2744459;52;8822;-59
2021/09/25 00:45:02;;;;;;;;;2.00;1.00;;;;;;;;2743860;52;9453;-58
2021/09/25 00:47:28;;;;;;;;;0.80;0.80;;;;;;;;2743867;52;8801;-61
2021/09/25 00:49:53;;;;;;;;;2.50;1.25;;;;;;;;2743882;52;8926;-60
2021/09/25 00:52:19;;;;;;;;;1.00;1.00;;;;;;;;2743886;52;8803;-59
2021/09/25 00:54:45;;;;;;;;;0.75;0.75;;;;;;;;2743807;52;8893;-59
2021/09/25 00:57:11;;;;;;;;;0.00;0.00;;;;;;;;2744194;52;8790;-60
2021/09/25 00:59:37;;;;;;;;;1.00;1.00;;;;;;;;2744025;52;8864;-59
2021/09/25 01:02:03;;;;;;;;;1.00;1.00;;;;;;;;2743870;52;11053;-60
2021/09/25 01:04:29;;;;;;;;;0.20;0.20;;;;;;;;2743870;52;8794;-59
2021/09/25 01:06:54;;;;;;;;;1.00;1.00;;;;;;;;2743890;52;8895;-59
2021/09/25 01:09:20;;;;;;;;;0.00;0.00;;;;;;;;2744322;52;8890;-59
2021/09/25 01:11:48;;;;;;;;;4.00;1.25;;;;;;;;2744020;52;8994;-60
2021/09/25 01:14:13;;;;;;;;;2.80;0.60;;;;;;;;2744138;52;8824;-59
2021/09/25 01:16:39;;;;;;;;;1.00;1.00;;;;;;;;2743633;52;8822;-58
2021/09/25 01:19:05;;;;;;;;;1.50;1.00;;;;;;;;2744223;52;8786;-59
2021/09/25 01:21:30;;;;;;;;;1.00;1.00;;;;;;;;2744126;52;8787;-60
2021/09/25 01:23:56;;;;;;;;;2.00;2.00;;;;;;;;2743792;52;8791;-59
2021/09/25 01:26:24;;;;;;;;;3.00;2.75;;;;;;;;2743840;52;8921;-60
2021/09/25 01:28:50;;;;;;;;;1.00;1.00;;;;;;;;2744052;52;8778;-60
2021/09/25 01:31:17;;;;;;;;;0.40;0.40;;;;;;;;2743796;52;8786;-60
2021/09/25 01:33:45;;;;;;;;;0.40;0.20;;;;;;;;2743796;52;8782;-60
2021/09/25 01:36:11;;;;;;;;;0.80;0.80;;;;;;;;2743754;52;8783;-59
2021/09/25 01:38:37;;;;;;;;;1.00;1.00;;;;;;;;2743991;52;8783;-61
2021/09/25 01:41:03;;;;;;;;;1.00;1.00;;;;;;;;2743688;52;8879;-61
2021/09/25 01:43:29;;;;;;;;;4.00;1.00;;;;;;;;2743580;52;8826;-60
2021/09/25 01:45:55;;;;;;;;;1.00;1.00;;;;;;;;2743986;52;8782;-59
2021/09/25 01:48:21;;;;;;;;;1.80;1.00;;;;;;;;2743630;52;8794;-59
2021/09/25 01:50:47;;;;;;;;;1.00;1.00;;;;;;;;2743681;52;8782;-58
2021/09/25 01:53:13;;;;;;;;;1.00;1.00;;;;;;;;2743779;52;8881;-60
2021/09/25 01:55:38;;;;;;;;;1.20;0.60;;;;;;;;2743646;52;8779;-58
2021/09/25 01:58:04;;;;;;;;;1.00;1.00;;;;;;;;2743634;52;8790;-58
2021/09/25 02:00:31;;;;;;;;;0.00;0.00;;;;;;;;2743919;52;8807;-60
2021/09/25 02:02:57;;;;;;;;;1.60;1.00;;;;;;;;2743996;52;8801;-59
2021/09/25 02:05:23;;;;;;;;;1.00;1.00;;;;;;;;2743727;52;8791;-61
2021/09/25 02:07:49;;;;;;;;;1.00;1.00;;;;;;;;2743560;52;8802;-58
2021/09/25 02:10:15;;;;;;;;;0.60;0.60;;;;;;;;2743713;52;8879;-59
2021/09/25 02:12:42;;;;;;;;;2.00;1.00;;;;;;;;2743544;52;8782;-59
2021/09/25 02:15:08;;;;;;;;;1.40;1.00;;;;;;;;2743850;52;8797;-60
2021/09/25 02:17:33;;;;;;;;;1.40;1.40;;;;;;;;2743839;52;8937;-58
2021/09/25 02:19:59;;;;;;;;;2.00;1.00;;;;;;;;2743469;52;8868;-59
2021/09/25 02:22:25;;;;;;;;;2.00;1.00;;;;;;;;2743541;52;8779;-60
2021/09/25 02:24:50;;;;;;;;;1.25;1.25;;;;;;;;2743507;52;9509;-60
2021/09/25 02:27:16;;;;;;;;;0.75;0.75;;;;;;;;2744032;52;8905;-59
2021/09/25 02:29:42;;;;;;;;;1.00;1.00;;;;;;;;2743628;52;8786;-59
2021/09/25 02:32:08;;;;;;;;;0.00;0.00;;;;;;;;2743493;52;8888;-59
2021/09/25 02:34:35;;;;;;;;;2.00;1.60;;;;;;;;2743631;52;8819;-60
2021/09/25 02:37:00;;;;;;;;;0.40;0.40;;;;;;;;2743700;52;8806;-60
2021/09/25 02:39:27;;;;;;;;;1.00;1.00;;;;;;;;2743663;52;8779;-58
2021/09/25 02:41:53;;;;;;;;;0.60;0.20;;;;;;;;2743536;52;8782;-59
2021/09/25 02:44:18;;;;;;;;;1.00;1.00;;;;;;;;2743480;52;8905;-59
2021/09/25 02:46:47;;;;;;;;;1.50;0.50;;;;;;;;2743391;52;11453;-58
2021/09/25 02:49:16;;;;;;;;;0.20;0.20;;;;;;;;2743956;52;8794;-60
2021/09/25 02:51:41;;;;;;;;;0.20;0.20;;;;;;;;2743474;52;8783;-59
2021/09/25 02:54:07;;;;;;;;;1.25;1.25;;;;;;;;2743148;52;8879;-61
2021/09/25 02:56:33;;;;;;;;;1.00;1.00;;;;;;;;2743452;52;8905;-58
2021/09/25 02:58:58;;;;;;;;;0.00;0.00;;;;;;;;2743381;52;8770;-59
2021/09/25 03:01:25;;;;;;;;;0.75;0.75;;;;;;;;2743384;52;8795;-59
2021/09/25 03:03:54;;;;;;;;;0.20;0.00;;;;;;;;2743733;52;8794;-61
2021/09/25 03:06:27;;;;;;;;;0.40;0.40;;;;;;;;2743312;52;8893;-61
2021/09/25 03:08:53;;;;;;;;;0.40;0.40;;;;;;;;2743567;52;8779;-60
2021/09/25 03:11:19;;;;;;;;;2.80;1.00;;;;;;;;2743364;52;8774;-60
2021/09/25 03:13:45;;;;;;;;;0.40;0.40;;;;;;;;2743809;52;8805;-60
2021/09/25 03:16:11;;;;;;;;;1.80;0.80;;;;;;;;2743377;52;8782;-59
2021/09/25 03:18:37;;;;;;;;;1.20;0.00;;;;;;;;2743622;52;8846;-59
2021/09/25 03:21:02;;;;;;;;;1.50;1.25;;;;;;;;2743420;52;8782;-61
2021/09/25 03:23:28;;;;;;;;;2.00;1.25;;;;;;;;2743400;52;8904;-62
2021/09/25 03:25:54;;;;;;;;;3.00;1.75;;;;;;;;2743524;52;8775;-60
2021/09/25 03:28:19;;;;;;;;;0.00;0.00;;;;;;;;2743389;52;8801;-59
2021/09/25 03:30:45;;;;;;;;;1.00;1.00;;;;;;;;2743252;52;8902;-60
2021/09/25 03:33:11;;;;;;;;;0.00;0.00;;;;;;;;2743450;52;8783;-59
2021/09/25 03:35:36;;;;;;;;;1.25;1.25;;;;;;;;2743485;52;11483;-60
2021/09/25 03:38:02;;;;;;;;;0.00;0.00;;;;;;;;2743438;52;8786;-60
2021/09/25 03:40:29;;;;;;;;;0.75;0.75;;;;;;;;2743304;52;8782;-61
2021/09/25 03:42:55;;;;;;;;;2.00;0.00;;;;;;;;2743305;52;8790;-59
2021/09/25 03:45:20;;;;;;;;;1.40;1.40;;;;;;;;2743346;52;8798;-59
2021/09/25 03:47:46;;;;;;;;;1.67;1.67;;;;;;;;2743214;52;8807;-61
2021/09/25 03:50:12;;;;;;;;;1.00;1.00;;;;;;;;2743239;52;8795;-62
2021/09/25 03:52:38;;;;;;;;;0.40;0.40;;;;;;;;2743502;52;8774;-62
2021/09/25 03:55:04;;;;;;;;;1.00;0.50;;;;;;;;2743499;52;9421;-59
2021/09/25 03:57:30;;;;;;;;;1.40;1.00;;;;;;;;2743341;52;8791;-60
2021/09/25 03:59:55;;;;;;;;;0.00;0.00;;;;;;;;2743286;52;8783;-60
2021/09/25 04:02:21;;;;;;;;;1.75;0.50;;;;;;;;2743431;52;8803;-60
2021/09/25 04:04:47;;;;;;;;;1.00;1.00;;;;;;;;2742998;52;8805;-63
2021/09/25 04:07:12;;;;;;;;;0.25;0.25;;;;;;;;2743510;52;9489;-60
2021/09/25 04:09:38;;;;;;;;;1.00;1.00;;;;;;;;2743448;52;8774;-59
2021/09/25 04:12:04;;;;;;;;;1.50;0.75;;;;;;;;2743185;52;8791;-59
2021/09/25 04:14:29;;;;;;;;;0.00;0.00;;;;;;;;2743042;52;8782;-61
2021/09/25 04:16:55;;;;;;;;;2.25;1.00;;;;;;;;2743289;52;9449;-61
2021/09/25 04:19:20;;;;;;;;;1.00;1.00;;;;;;;;2743225;52;8791;-60
2021/09/25 04:21:46;;;;;;;;;1.00;1.00;;;;;;;;2743216;52;8799;-59
2021/09/25 04:24:12;;;;;;;;;2.00;1.00;;;;;;;;2743138;52;8798;-61
2021/09/25 04:26:37;;;;;;;;;1.50;1.50;;;;;;;;2743085;52;8806;-60
2021/09/25 04:29:03;;;;;;;;;0.75;0.75;;;;;;;;2743616;52;8790;-64
2021/09/25 04:31:29;;;;;;;;;0.50;0.50;;;;;;;;2743158;52;8802;-60
2021/09/25 04:33:54;;;;;;;;;0.00;0.00;;;;;;;;2743276;52;8790;-59
2021/09/25 04:36:20;;;;;;;;;0.50;0.50;;;;;;;;2743181;52;8791;-60
2021/09/25 04:38:45;;;;;;;;;1.00;1.00;;;;;;;;2742866;52;8821;-60
2021/09/25 04:41:11;;;;;;;;;0.50;0.50;;;;;;;;2743123;52;8806;-61
2021/09/25 04:43:37;;;;;;;;;2.00;1.00;;;;;;;;2743231;52;8818;-60
2021/09/25 04:46:02;;;;;;;;;0.75;0.75;;;;;;;;2742964;52;8866;-61
2021/09/25 04:48:28;;;;;;;;;1.50;1.50;;;;;;;;2743253;52;8786;-60
2021/09/25 04:50:53;;;;;;;;;1.00;1.00;;;;;;;;2743007;52;8838;-61
2021/09/25 04:53:19;;;;;;;;;1.00;1.00;;;;;;;;2743331;52;8893;-60
2021/09/25 04:55:45;;;;;;;;;1.00;1.00;;;;;;;;2743311;52;9150;-60
2021/09/25 04:58:11;;;;;;;;;1.00;0.00;;;;;;;;2743403;52;8786;-60
2021/09/25 05:00:37;;;;;;;;;1.00;0.80;;;;;;;;2743464;52;8782;-61
2021/09/25 05:03:02;;;;;;;;;0.80;0.00;;;;;;;;2742869;52;8783;-62
2021/09/25 05:05:28;;;;;;;;;1.00;1.00;;;;;;;;2742836;52;8835;-61
2021/09/25 05:07:54;;;;;;;;;1.50;1.50;;;;;;;;2742889;52;8794;-61
2021/09/25 05:10:20;;;;;;;;;0.50;0.50;;;;;;;;2743007;52;9459;-60
2021/09/25 05:12:45;;;;;;;;;0.60;0.60;;;;;;;;2742939;52;8779;-60
2021/09/25 05:15:11;;;;;;;;;1.00;1.00;;;;;;;;2742959;52;8810;-61
2021/09/25 05:17:37;;;;;;;;;0.00;0.00;;;;;;;;2743274;52;8913;-62
2021/09/25 05:20:04;;;;;;;;;0.80;0.80;;;;;;;;2743848;52;8781;-62
2021/09/25 05:22:30;;;;;;;;;1.00;1.00;;;;;;;;2744235;52;8775;-62
2021/09/25 05:24:56;;;;;;;;;0.75;0.00;;;;;;;;2743708;52;8821;-63
2021/09/25 05:27:21;;;;;;;;;0.75;0.75;;;;;;;;2743759;52;8909;-63
2021/09/25 05:29:47;;;;;;;;;0.25;0.25;;;;;;;;2744090;52;8817;-62
2021/09/25 05:32:13;;;;;;;;;0.00;0.00;;;;;;;;2744071;52;8802;-63
2021/09/25 05:34:42;;;;;;;;;0.00;0.00;;;;;;;;2744072;52;9445;-64
2021/09/25 05:37:08;;;;;;;;;0.60;0.60;;;;;;;;2743962;52;8809;-63
2021/09/25 05:39:33;;;;;;;;;1.00;1.00;;;;;;;;2744449;52;8782;-62
2021/09/25 05:41:59;;;;;;;;;1.00;1.00;;;;;;;;2744247;52;8801;-66
2021/09/25 05:44:25;;;;;;;;;0.75;0.75;;;;;;;;2743896;52;8794;-61
2021/09/25 05:46:50;;;;;;;;;0.00;0.00;;;;;;;;2743706;52;8802;-60
2021/09/25 05:49:16;;;;;;;;;1.00;1.00;;;;;;;;2743723;52;8802;-62
2021/09/25 05:51:41;;;;;;;;;1.00;1.00;;;;;;;;2743660;52;8873;-63
2021/09/25 05:54:07;;;;;;;;;1.00;1.00;;;;;;;;2743659;52;8790;-61
2021/09/25 05:56:34;;;;;;;;;1.00;1.00;;;;;;;;2743577;52;8876;-61
2021/09/25 05:58:59;;;;;;;;;1.60;1.00;;;;;;;;2743960;52;8807;-60
2021/09/25 06:01:25;;;;;;;;;0.00;0.00;;;;;;;;2743841;52;8790;-61
2021/09/25 06:03:50;;;;;;;;;0.00;0.00;;;;;;;;2743782;52;8807;-61
2021/09/25 06:06:16;;;;;;;;;0.75;0.75;;;;;;;;2743614;52;8790;-65
2021/09/25 06:08:42;;;;;;;;;2.00;2.00;;;;;;;;2743507;52;8925;-66
2021/09/25 06:11:07;;;;;;;;;1.00;1.00;;;;;;;;2743648;52;8790;-65
2021/09/25 06:13:33;;;;;;;;;0.75;0.75;;;;;;;;2743839;52;8897;-63
2021/09/25 06:15:59;;;;;;;;;0.00;0.00;;;;;;;;2743607;52;8790;-67
2021/09/25 06:18:24;;;;;;;;;1.00;1.00;;;;;;;;2743710;52;8814;-62
2021/09/25 06:20:50;;;;;;;;;1.50;1.50;;;;;;;;2744207;52;8799;-62
2021/09/25 06:23:15;;;;;;;;;0.00;0.00;;;;;;;;2743941;52;8794;-62
2021/09/25 06:25:41;;;;;;;;;2.75;1.00;;;;;;;;2743611;52;8794;-63
2021/09/25 06:28:07;;;;;;;;;0.25;0.25;;;;;;;;2743522;52;9013;-63
2021/09/25 06:30:33;;;;;;;;;0.00;0.00;;;;;;;;2743926;52;8805;-62
2021/09/25 06:32:59;;;;;;;;;0.00;0.00;;;;;;;;2743443;52;8901;-62
2021/09/25 06:35:25;;;;;;;;;1.00;0.00;;;;;;;;2743485;52;8787;-62
2021/09/25 06:37:50;;;;;;;;;0.75;0.75;;;;;;;;2743746;52;8783;-62
2021/09/25 06:40:16;;;;;;;;;0.00;0.00;;;;;;;;2743625;52;8778;-58
2021/09/25 06:42:42;;;;;;;;;1.00;1.00;;;;;;;;2742426;52;8778;-58
2021/09/25 06:45:08;;;;;;;;;0.00;0.00;;;;;;;;2740780;52;9474;-59
2021/09/25 06:47:34;;;;;;;;;0.20;0.00;;;;;;;;2741447;52;8777;-61
2021/09/25 06:50:01;;;;;;;;;0.00;0.00;;;;;;;;2737856;52;8777;-59
2021/09/25 06:52:27;;;;;;;;;0.00;0.00;;;;;;;;2741058;52;8794;-59
2021/09/25 06:54:53;;;;;;;;;0.80;0.00;;;;;;;;2743774;52;8785;-59
2021/09/25 06:57:19;;;;;;;;;0.00;0.00;;;;;;;;2743461;52;8799;-60
2021/09/25 06:59:44;;;;;;;;;0.50;0.50;;;;;;;;2743321;52;8782;-59
2021/09/25 07:02:10;;;;;;;;;0.00;0.00;;;;;;;;2737718;52;8793;-59
2021/09/25 07:04:36;;;;;;;;;1.00;1.00;;;;;;;;2737446;52;9316;-61
2021/09/25 07:07:02;;;;;;;;;1.00;1.00;;;;;;;;2737878;52;8789;-60
2021/09/25 07:09:28;;;;;;;;;0.00;0.00;;;;;;;;2737941;52;8889;-59
2021/09/25 07:11:53;;;;;;;;;2.00;0.75;;;;;;;;2737800;52;9448;-61
2021/09/25 07:14:19;;;;;;;;;0.00;0.00;;;;;;;;2737696;52;11541;-60
2021/09/25 07:16:45;;;;;;;;;1.00;1.00;;;;;;;;2737612;52;8887;-61
2021/09/25 07:19:11;;;;;;;;;0.00;0.00;;;;;;;;2743722;52;8786;-59
2021/09/25 07:21:37;;;;;;;;;0.00;0.00;;;;;;;;2743466;52;8774;-61
2021/09/25 07:24:03;;;;;;;;;0.50;0.50;;;;;;;;2743424;52;8814;-59
2021/09/25 07:26:29;;;;;;;;;1.00;1.00;;;;;;;;2743674;52;8794;-60
2021/09/25 07:28:54;;;;;;;;;0.00;0.00;;;;;;;;2743350;52;8782;-59
2021/09/25 07:31:20;;;;;;;;;0.00;0.00;;;;;;;;2743277;52;10648;-61
2021/09/25 07:33:45;;;;;;;;;0.25;0.00;;;;;;;;2743507;52;8794;-61
2021/09/25 07:36:11;;;;;;;;;0.00;0.00;;;;;;;;2743232;52;9434;-61
2021/09/25 07:38:37;;;;;;;;;0.00;0.00;;;;;;;;2743280;52;8787;-59
2021/09/25 07:41:03;;;;;;;;;0.00;0.00;;;;;;;;2743506;52;8787;-59
2021/09/25 07:43:28;;;;;;;;;0.67;0.00;;;;;;;;2743299;52;8794;-59
2021/09/25 07:45:58;;;;;;;;;0.00;0.00;;;;;;;;2743274;52;8789;-58
2021/09/25 07:48:24;;;;;;;;;0.00;0.00;;;;;;;;2743243;52;8867;-60
2021/09/25 07:50:50;;;;;;;;;0.00;0.00;;;;;;;;2742939;52;8774;-60
2021/09/25 07:53:15;;;;;;;;;0.00;0.00;;;;;;;;2737578;52;8810;-58
2021/09/25 07:55:41;;;;;;;;;0.00;0.00;;;;;;;;2737466;52;9433;-60
2021/09/25 07:58:08;;;;;;;;;0.00;0.00;;;;;;;;2737333;52;9519;-60
2021/09/25 08:00:34;;;;;;;;;0.00;0.00;;;;;;;;2737681;52;8773;-59
2021/09/25 08:03:00;;;;;;;;;0.00;0.00;;;;;;;;2737678;52;8777;-59
2021/09/25 08:05:26;;;;;;;;;0.00;0.00;;;;;;;;2737247;52;9452;-58
2021/09/25 08:07:52;;;;;;;;;0.00;0.00;;;;;;;;2737610;52;8800;-60
2021/09/25 08:10:17;;;;;;;;;0.00;0.00;;;;;;;;2737379;52;8785;-60
2021/09/25 08:12:43;;;;;;;;;0.00;0.00;;;;;;;;2737380;52;8789;-60
2021/09/25 08:15:10;;;;;;;;;0.00;0.00;;;;;;;;2737103;52;8781;-61
2021/09/25 08:17:36;;;;;;;;;0.00;0.00;;;;;;;;2737292;52;9467;-59
2021/09/25 08:20:02;;;;;;;;;0.00;0.00;;;;;;;;2737211;52;8803;-59
2021/09/25 08:22:28;;;;;;;;;0.00;0.00;;;;;;;;2737154;52;8781;-59
2021/09/25 08:24:54;;;;;;;;;0.00;0.00;;;;;;;;2737158;52;8828;-60
2021/09/25 08:27:20;;;;;;;;;0.00;0.00;;;;;;;;2737101;52;8785;-60
2021/09/25 08:29:45;;;;;;;;;0.00;0.00;;;;;;;;2737362;52;8789;-60
2021/09/25 08:32:11;;;;;;;;;0.00;0.00;;;;;;;;2737437;52;8785;-61
2021/09/25 08:34:36;;;;;;;;;0.00;0.00;;;;;;;;2737145;52;9464;-61
2021/09/25 08:37:05;;;;;;;;;0.00;0.00;;;;;;;;2737478;52;8793;-61
2021/09/25 08:39:31;;;;;;;;;0.00;0.00;;;;;;;;2737322;52;8785;-61
2021/09/25 08:41:57;;;;;;;;;0.00;0.00;;;;;;;;2737132;52;8789;-60
2021/09/25 08:44:22;;;;;;;;;0.00;0.00;;;;;;;;2737093;52;8948;-61
2021/09/25 08:46:48;;;;;;;;;0.00;0.00;;;;;;;;2737526;52;8809;-61
2021/09/25 08:49:14;;;;;;;;;0.00;0.00;;;;;;;;2737236;52;8781;-61
2021/09/25 08:51:39;;;;;;;;;0.00;0.00;;;;;;;;2739779;52;8812;-60
2021/09/25 08:54:05;;;;;;;;;0.00;0.00;;;;;;;;2743856;52;9473;-61
2021/09/25 08:56:31;;;;;;;;;0.00;0.00;;;;;;;;2743918;52;8782;-62
2021/09/25 08:58:57;;;;;;;;;0.00;0.00;;;;;;;;2743961;52;8802;-60
2021/09/25 09:01:24;;;;;;;;;0.00;0.00;;;;;;;;2743798;52;8904;-60
2021/09/25 09:03:51;;;;;;;;;0.00;0.00;;;;;;;;2744085;52;8806;-59
2021/09/25 09:06:18;;;;;;;;;0.00;0.00;;;;;;;;2743848;52;8808;-61
2021/09/25 09:08:45;;;;;;;;;0.00;0.00;;;;;;;;2744199;52;9409;-61
2021/09/25 09:11:11;;;;;;;;;0.00;0.00;;;;;;;;2743953;52;8786;-61
2021/09/25 09:13:38;;;;;;;;;0.00;0.00;;;;;;;;2743794;52;8786;-62
2021/09/25 09:16:05;;;;;;;;;0.00;0.00;;;;;;;;2743760;52;8790;-60
2021/09/25 09:18:32;;;;;;;;;0.00;0.00;;;;;;;;2743805;52;8790;-60
2021/09/25 09:21:14;;;;;;;;;0.00;0.00;;;;;;;;2743855;52;9495;-60
2021/09/25 09:23:50;;;;;;;;;0.00;0.00;;;;;;;;2744230;52;8774;-62
2021/09/25 09:26:17;;;;;;;;;0.00;0.00;;;;;;;;2743854;52;8770;-62
2021/09/25 09:28:44;;;;;;;;;1.00;1.00;;;;;;;;2743646;52;8805;-61
2021/09/25 09:31:10;;;;;;;;;0.00;0.00;;;;;;;;2743774;52;8783;-60
2021/09/25 09:33:48;;;;;;;;;0.00;0.00;;;;;;;;2744186;52;8799;-62
2021/09/25 09:36:16;;;;;;;;;1.00;1.00;;;;;;;;2743820;52;8787;-62
2021/09/25 09:39:02;;;;;;;;;1.00;1.00;;;;;;;;2743942;52;8799;-60
2021/09/25 09:41:38;;;;;;;;;0.00;0.00;;;;;;;;2740772;52;8779;-59
2021/09/25 09:44:09;;;;;;;;;0.80;0.80;;;;;;;;2743576;52;8814;-62
2021/09/25 09:46:36;;;;;;;;;0.00;0.00;;;;;;;;2743789;52;8786;-62
2021/09/25 09:49:03;;;;;;;;;1.00;1.00;;;;;;;;2743952;52;8806;-60
2021/09/25 09:51:41;;;;;;;;;1.00;1.00;;;;;;;;2741983;52;8793;-60
2021/09/25 09:54:32;;;;;;;;;1.60;1.60;;;;;;;;2737729;52;9466;-58
2021/09/25 09:57:12;;;;;;;;;1.00;1.00;;;;;;;;2737506;52;9514;-62
2021/09/25 09:59:38;;;;;;;;;0.00;0.00;;;;;;;;2737652;52;8919;-61
2021/09/25 10:02:05;;;;;;;;;0.00;0.00;;;;;;;;2733912;52;9935;-60
2021/09/25 10:04:31;;;;;;;;;1.00;1.00;;;;;;;;2736418;52;8884;-64
2021/09/25 10:06:57;;;;;;;;;1.40;1.40;;;;;;;;2736943;52;8930;-62
2021/09/25 10:09:24;;;;;;;;;1.00;1.00;;;;;;;;2737224;52;10318;-62
2021/09/25 10:11:51;;;;;;;;;2.00;2.00;;;;;;;;2737674;52;8797;-64
2021/09/25 10:14:19;;;;;;;;;1.80;1.80;;;;;;;;2737615;52;8879;-61
2021/09/25 10:16:45;;;;;;;;;1.80;1.80;;;;;;;;2737955;52;8793;-61
2021/09/25 10:19:12;;;;;;;;;4.20;4.20;;;;;;;;2737698;52;8909;-62
2021/09/25 10:21:38;;;;;;;;;3.60;3.60;;;;;;;;2737706;52;8788;-62
2021/09/25 10:24:20;;;;;;;;;2.00;2.00;;;;;;;;2737731;52;8813;-62
2021/09/25 10:26:47;;;;;;;;;0.80;0.80;;;;;;;;2737795;52;8808;-64
2021/09/25 10:29:20;;;;;;;;;3.60;3.60;;;;;;;;2737123;52;8777;-62
2021/09/25 10:31:46;;;;;;;;;0.00;0.00;;;;;;;;2736404;52;8804;-62
2021/09/25 10:34:19;;;;;;;;;3.00;3.00;;;;;;;;2736608;52;8812;-63
2021/09/25 10:36:56;;;;;;;;;4.80;4.80;;;;;;;;2736362;52;8811;-62
2021/09/25 10:39:26;;;;;;;;;2.00;2.00;;;;;;;;2736607;52;8809;-63
2021/09/25 10:42:12;;;;;;;;;1.60;1.60;;;;;;;;2736339;52;8789;-61
2021/09/25 10:44:42;;;;;;;;;2.20;2.20;;;;;;;;2736333;52;8809;-60
2021/09/25 10:47:10;;;;;;;;;0.00;0.00;;;;;;;;2736655;52;8805;-63
2021/09/25 10:49:56;;;;;;;;;4.00;2.60;;;;;;;;2736593;52;8785;-60
2021/09/25 10:52:40;;;;;;;;;0.60;0.60;;;;;;;;2736074;52;8801;-61
2021/09/25 10:55:17;;;;;;;;;1.00;1.00;;;;;;;;2736880;52;8819;-62
2021/09/25 10:57:42;;;;;;;;;0.60;0.60;;;;;;;;2745618;52;8789;-61
2021/09/25 11:00:22;;;;;;;;;1.00;1.00;;;;;;;;2736123;52;8797;-62
2021/09/25 11:02:48;;;;;;;;;0.80;0.00;;;;;;;;2736428;52;8813;-59
2021/09/25 11:05:14;;;;;;;;;1.00;1.00;;;;;;;;2736406;52;8918;-62
2021/09/25 11:07:42;;;;;;;;;2.00;2.00;;;;;;;;2736651;52;8800;-62
2021/09/25 11:10:08;;;;;;;;;2.80;2.80;;;;;;;;2737735;52;8793;-62
2021/09/25 11:12:45;;;;;;;;;0.75;0.75;;;;;;;;2737653;52;8894;-61
2021/09/25 11:15:30;;;;;;;;;0.00;0.00;;;;;;;;2737040;52;8912;-61
2021/09/25 11:18:14;;;;;;;;;2.40;2.00;;;;;;;;2737646;52;8812;-60
2021/09/25 11:20:40;;;;;;;;;0.00;0.00;;;;;;;;2737375;52;8907;-61
2021/09/25 11:23:05;;;;;;;;;1.50;1.50;;;;;;;;2737499;52;8789;-61
2021/09/25 11:25:32;;;;;;;;;0.00;0.00;;;;;;;;2736955;52;8820;-60
2021/09/25 11:28:01;;;;;;;;;3.40;3.40;;;;;;;;2737614;52;8789;-62
2021/09/25 11:30:27;;;;;;;;;2.80;2.80;;;;;;;;2737305;52;8935;-62
2021/09/25 11:32:53;;;;;;;;;4.00;4.00;;;;;;;;2737382;52;8793;-63
2021/09/25 11:35:18;;;;;;;;;1.00;1.00;;;;;;;;2737942;52;8777;-61
2021/09/25 11:37:55;;;;;;;;;1.00;1.00;;;;;;;;2737619;52;9452;-61
2021/09/25 11:40:21;;;;;;;;;1.00;1.00;;;;;;;;2737551;52;8804;-61
2021/09/25 11:42:48;;;;;;;;;2.00;2.00;;;;;;;;2737523;52;8805;-61
2021/09/25 11:45:17;;;;;;;;;3.00;3.00;;;;;;;;2737532;52;8825;-61
2021/09/25 11:47:47;;;;;;;;;2.40;2.40;;;;;;;;2737649;52;8811;-61
2021/09/25 11:50:26;;;;;;;;;2.60;2.60;;;;;;;;2737517;52;8865;-60
2021/09/25 11:52:54;;;;;;;;;2.00;2.00;;;;;;;;2737248;52;8789;-61
2021/09/25 11:55:21;;;;;;;;;1.00;1.00;;;;;;;;2737496;52;8821;-59
2021/09/25 11:57:50;;;;;;;;;4.00;4.00;;;;;;;;2737592;52;8944;-60
2021/09/25 12:00:35;;;;;;;;;3.00;3.00;;;;;;;;2737508;52;8892;-61
2021/09/25 12:03:02;;;;;;;;;2.00;2.00;;;;;;;;2737356;52;8911;-60
2021/09/25 12:05:34;;;;;;;;;3.00;3.00;;;;;;;;2737400;52;8931;-61
2021/09/25 12:08:04;;;;;;;;;4.00;4.00;;;;;;;;2737201;52;8801;-62
2021/09/25 12:10:31;;;;;;;;;4.40;4.40;;;;;;;;2737404;52;8781;-61
2021/09/25 12:13:10;;;;;;;;;3.40;3.40;;;;;;;;2737568;52;8919;-61
2021/09/25 12:15:37;;;;;;;;;3.60;3.00;;;;;;;;2737531;52;9433;-60
2021/09/25 12:18:14;;;;;;;;;0.00;0.00;;;;;;;;2737122;52;8809;-63
2021/09/25 12:20:41;;;;;;;;;0.80;0.00;;;;;;;;2737728;52;8793;-64
2021/09/25 12:23:07;;;;;;;;;1.80;1.80;;;;;;;;2737587;52;8785;-66
2021/09/25 12:25:36;;;;;;;;;0.60;0.60;;;;;;;;2737288;52;8879;-65
2021/09/25 12:28:02;;;;;;;;;4.40;4.40;;;;;;;;2737994;52;9487;-65
2021/09/25 12:30:28;;;;;;;;;2.00;2.00;;;;;;;;2738201;52;8804;-64
2021/09/25 12:33:00;;;;;;;;;2.00;2.00;;;;;;;;2738142;52;8785;-66
2021/09/25 12:35:26;;;;;;;;;2.40;2.40;;;;;;;;2737140;52;8792;-67
2021/09/25 12:37:52;;;;;;;;;0.00;0.00;;;;;;;;2737712;52;8801;-63
2021/09/25 12:40:18;;;;;;;;;0.00;0.00;;;;;;;;2738471;52;8793;-64
2021/09/25 12:42:43;;;;;;;;;0.00;0.00;;;;;;;;2738398;52;8787;-60
2021/09/25 12:45:10;;;;;;;;;1.00;1.00;;;;;;;;2738108;52;11524;-63
2021/09/25 12:47:36;;;;;;;;;0.00;0.00;;;;;;;;2731308;52;9866;-65
2021/09/25 12:50:18;;;;;;;;;2.00;0.00;;;;;;;;2732012;52;8924;-67
2021/09/25 12:52:44;;;;;;;;;1.00;1.00;;;;;;;;2732287;52;8776;-69
2021/09/25 12:55:10;;;;;;;;;3.00;2.00;;;;;;;;2736417;52;8899;-64
2021/09/25 12:57:36;;;;;;;;;3.00;3.00;;;;;;;;2732009;52;8902;-64
2021/09/25 13:00:07;;;;;;;;;1.00;1.00;;;;;;;;2732124;52;8939;-62
2021/09/25 13:02:34;;;;;;;;;0.00;0.00;;;;;;;;2732019;52;9457;-63
2021/09/25 13:05:01;;;;;;;;;0.00;0.00;;;;;;;;2732333;52;8812;-68
2021/09/25 13:07:27;;;;;;;;;0.00;0.00;;;;;;;;2732160;52;8796;-67
2021/09/25 13:09:54;;;;;;;;;0.00;0.00;;;;;;;;2732377;52;8807;-68
2021/09/25 13:12:33;;;;;;;;;0.00;0.00;;;;;;;;2731137;52;8784;-68
2021/09/25 13:15:19;;;;;;;;;0.00;0.00;;;;;;;;2730969;52;8788;-66
2021/09/25 13:17:46;;;;;;;;;0.00;0.00;;;;;;;;2733559;52;8821;-64
2021/09/25 13:20:13;;;;;;;;;0.00;0.00;;;;;;;;2735869;52;8898;-66
2021/09/25 13:22:43;;;;;;;;;0.00;0.00;;;;;;;;2732213;52;8784;-66
2021/09/25 13:25:09;;;;;;;;;0.00;0.00;;;;;;;;2732186;52;8799;-63
2021/09/25 13:27:36;;;;;;;;;0.00;0.00;;;;;;;;2732039;52;8840;-64
2021/09/25 13:30:02;;;;;;;;;0.75;0.00;;;;;;;;2732118;52;11108;-61
2021/09/25 13:32:28;;;;;;;;;0.00;0.00;;;;;;;;2737189;52;8808;-62
2021/09/25 13:37:29;;;;;;;;;0.00;0.00;;;;;;;;2627060;42;8883;-61
2021/09/25 13:39:55;;;;;;;;;0.00;0.00;;;;;;;;2743320;52;8778;-63
2021/09/25 13:42:21;;;;;;;;;0.00;0.00;;;;;;;;2742827;52;8810;-61
2021/09/25 13:44:46;;;;;;;;;0.00;0.00;;;;;;;;2743752;52;8786;-61
2021/09/25 13:47:12;;;;;;;;;0.00;0.00;;;;;;;;2743813;52;8797;-62
2021/09/25 13:49:39;;;;;;;;;0.00;0.00;;;;;;;;2744154;52;8807;-61
2021/09/25 13:52:05;;;;;;;;;0.00;0.00;;;;;;;;2743822;52;8774;-64
2021/09/25 13:54:31;;;;;;;;;0.00;0.00;;;;;;;;2743760;52;9425;-63
2021/09/25 13:56:56;;;;;;;;;0.00;0.00;;;;;;;;2743773;52;8810;-61
2021/09/25 13:59:22;;;;;;;;;0.33;0.33;;;;;;;;2784608;45;8837;-62
2021/09/25 14:01:47;;;;;;;;;0.00;0.00;;;;;;;;2722001;52;8820;-61
2021/09/25 14:04:13;;;;;;;;;0.00;0.00;;;;;;;;2725128;52;8804;-61
2021/09/25 14:06:39;;;;;;;;;0.00;0.00;;;;;;;;2725412;52;8788;-61
2021/09/25 14:11:02;;;;;;;;;1.00;1.00;;;;;;;;2807630;51;13952;-61
2021/09/25 14:13:28;;;;;;;;;0.00;0.00;;;;;;;;2802679;51;8770;-63
2021/09/25 14:15:53;;;;;;;;;0.00;0.00;;;;;;;;2802083;51;11344;-61
2021/09/25 14:18:19;;;;;;;;;0.00;0.00;;;;;;;;2802154;51;8777;-61
2021/09/25 14:20:45;;;;;;;;;0.00;0.00;;;;;;;;2796186;51;9599;-61
2021/09/25 14:23:11;;;;;;;;;0.00;0.00;;;;;;;;2791153;51;10057;-61
2021/09/25 14:25:41;;;;;;;;;0.00;0.00;;;;;;;;2789701;51;9845;-65
2021/09/25 14:28:07;;;;;;;;;0.00;0.00;;;;;;;;2790004;51;8807;-63
2021/09/25 14:30:33;;;;;;;;;0.00;0.00;;;;;;;;2789950;51;8898;-63
2021/09/25 14:33:00;;;;;;;;;0.00;0.00;;;;;;;;2791316;51;8849;-65
2021/09/25 14:35:25;;;;;;;;;0.00;0.00;;;;;;;;2796222;51;8753;-63
2021/09/25 14:37:51;;;;;;;;;0.00;0.00;;;;;;;;2796058;51;8757;-64
2021/09/25 14:40:16;;;;;;;;;0.00;0.00;;;;;;;;2796416;51;8777;-62
2021/09/25 14:42:44;;;;;;;;;0.00;0.00;;;;;;;;2796074;51;8773;-60
2021/09/25 14:45:13;;;;;;;;;0.00;0.00;;;;;;;;2796032;51;8761;-62
2021/09/25 14:47:39;;;;;;;;;0.00;0.00;;;;;;;;2796196;51;8757;-62
2021/09/25 14:50:05;;;;;;;;;0.00;0.00;;;;;;;;2795964;51;8769;-62
2021/09/25 14:52:31;;;;;;;;;0.00;0.00;;;;;;;;2789964;51;8788;-61
2021/09/25 14:54:57;;;;;;;;;0.00;0.00;;;;;;;;2790043;51;9507;-60
2021/09/25 14:57:22;;;;;;;;;0.00;0.00;;;;;;;;2789857;51;8744;-61
2021/09/25 14:59:48;;;;;;;;;0.00;0.00;;;;;;;;2789740;51;8784;-61